sensor_id;sensor_type;location;lat;lon;timestamp;P1;durP1;ratioP1;P2;durP2;ratioP2
16029;SDS011;34770;49.272;11.070;2024-03-23T00:54:08;5.65;;;5.00;;
16029;SDS011;34770;49.272;11.070;2024-03-23T00:56:33;4.82;;;4.43;;
16029;SDS011;34770;49.272;11.070;2024-03-23T00:58:58;5.20;;;4.70;;
16029;SDS011;34770;49.272;11.070;2024-03-23T01:01:24;6.43;;;5.22;;
16029;SDS011;34770;49.272;11.070;2024-03-23T01:03:49;6.53;;;4.53;;
16029;SDS011;34770;49.272;11.070;2024-03-23T01:06:15;6.45;;;4.60;;
16029;SDS011;34770;49.272;11.070;2024-03-23T01:08:40;5.30;;;4.32;;
16029;SDS011;34770;49.272;11.070;2024-03-23T01:11:06;5.55;;;4.95;;
16029;SDS011;34770;49.272;11.070;2024-03-23T01:13:31;4.93;;;4.40;;
16029;SDS011;34770;49.272;11.070;2024-03-23T01:15:57;4.80;;;4.35;;
16029;SDS011;34770;49.272;11.070;2024-03-23T01:18:23;5.13;;;4.63;;
16029;SDS011;34770;49.272;11.070;2024-03-23T01:20:51;4.95;;;4.55;;
16029;SDS011;34770;49.272;11.070;2024-03-23T01:23:17;8.07;;;4.80;;
16029;SDS011;34770;49.272;11.070;2024-03-23T01:25:42;5.72;;;4.45;;
16029;SDS011;34770;49.272;11.070;2024-03-23T01:28:08;5.68;;;4.88;;
16029;SDS011;34770;49.272;11.070;2024-03-23T01:30:34;5.43;;;4.85;;
16029;SDS011;34770;49.272;11.070;2024-03-23T01:33:00;4.93;;;4.47;;
16029;SDS011;34770;49.272;11.070;2024-03-23T01:35:26;5.28;;;4.78;;
16029;SDS011;34770;49.272;11.070;2024-03-23T01:37:51;5.30;;;4.80;;
16029;SDS011;34770;49.272;11.070;2024-03-23T01:40:17;6.22;;;5.43;;
16029;SDS011;34770;49.272;11.070;2024-03-23T01:42:42;5.57;;;5.05;;
16029;SDS011;34770;49.272;11.070;2024-03-23T01:45:08;5.50;;;4.95;;
16029;SDS011;34770;49.272;11.070;2024-03-23T01:47:37;7.75;;;5.32;;
16029;SDS011;34770;49.272;11.070;2024-03-23T01:50:03;5.65;;;5.15;;
16029;SDS011;34770;49.272;11.070;2024-03-23T01:52:29;5.30;;;4.80;;
16029;SDS011;34770;49.272;11.070;2024-03-23T01:54:55;5.30;;;4.80;;
16029;SDS011;34770;49.272;11.070;2024-03-23T01:57:21;5.78;;;5.28;;
16029;SDS011;34770;49.272;11.070;2024-03-23T01:59:47;5.78;;;5.20;;
16029;SDS011;34770;49.272;11.070;2024-03-23T02:02:13;5.45;;;4.60;;
16029;SDS011;34770;49.272;11.070;2024-03-23T02:04:38;5.35;;;4.70;;
16029;SDS011;34770;49.272;11.070;2024-03-23T02:07:04;7.95;;;5.63;;
16029;SDS011;34770;49.272;11.070;2024-03-23T02:09:31;4.88;;;4.38;;
16029;SDS011;34770;49.272;11.070;2024-03-23T02:11:57;5.65;;;5.05;;
16029;SDS011;34770;49.272;11.070;2024-03-23T02:14:23;5.55;;;5.03;;
16029;SDS011;34770;49.272;11.070;2024-03-23T02:16:48;6.63;;;5.03;;
16029;SDS011;34770;49.272;11.070;2024-03-23T02:19:14;7.20;;;4.65;;
16029;SDS011;34770;49.272;11.070;2024-03-23T02:21:39;6.15;;;5.55;;
16029;SDS011;34770;49.272;11.070;2024-03-23T02:24:05;5.75;;;4.63;;
16029;SDS011;34770;49.272;11.070;2024-03-23T02:26:30;5.07;;;4.50;;
16029;SDS011;34770;49.272;11.070;2024-03-23T02:28:56;5.00;;;4.50;;
16029;SDS011;34770;49.272;11.070;2024-03-23T02:31:21;5.82;;;4.30;;
16029;SDS011;34770;49.272;11.070;2024-03-23T02:33:47;5.22;;;4.72;;
16029;SDS011;34770;49.272;11.070;2024-03-23T02:36:12;5.30;;;4.80;;
16029;SDS011;34770;49.272;11.070;2024-03-23T02:38:37;5.50;;;5.00;;
16029;SDS011;34770;49.272;11.070;2024-03-23T02:41:03;5.45;;;4.93;;
16029;SDS011;34770;49.272;11.070;2024-03-23T02:43:29;6.05;;;5.32;;
16029;SDS011;34770;49.272;11.070;2024-03-23T02:45:54;5.53;;;4.80;;
16029;SDS011;34770;49.272;11.070;2024-03-23T02:48:20;6.10;;;4.72;;
16029;SDS011;34770;49.272;11.070;2024-03-23T02:50:45;6.53;;;5.20;;
16029;SDS011;34770;49.272;11.070;2024-03-23T02:53:11;5.95;;;4.80;;
16029;SDS011;34770;49.272;11.070;2024-03-23T02:55:36;5.57;;;5.07;;
16029;SDS011;34770;49.272;11.070;2024-03-23T02:58:02;5.47;;;4.78;;
16029;SDS011;34770;49.272;11.070;2024-03-23T03:00:28;5.32;;;4.80;;
16029;SDS011;34770;49.272;11.070;2024-03-23T03:02:53;5.63;;;5.13;;
16029;SDS011;34770;49.272;11.070;2024-03-23T03:05:19;6.03;;;4.97;;
16029;SDS011;34770;49.272;11.070;2024-03-23T03:07:44;5.10;;;4.60;;
16029;SDS011;34770;49.272;11.070;2024-03-23T03:10:10;4.63;;;4.18;;
16029;SDS011;34770;49.272;11.070;2024-03-23T03:12:36;4.55;;;4.15;;
16029;SDS011;34770;49.272;11.070;2024-03-23T03:15:03;5.70;;;4.55;;
16029;SDS011;34770;49.272;11.070;2024-03-23T03:17:30;5.35;;;4.57;;
16029;SDS011;34770;49.272;11.070;2024-03-23T03:19:55;6.07;;;4.88;;
16029;SDS011;34770;49.272;11.070;2024-03-23T03:22:21;4.72;;;4.32;;
16029;SDS011;34770;49.272;11.070;2024-03-23T03:24:47;7.45;;;4.60;;
16029;SDS011;34770;49.272;11.070;2024-03-23T03:27:13;4.75;;;4.35;;
16029;SDS011;34770;49.272;11.070;2024-03-23T03:29:38;5.45;;;4.85;;
16029;SDS011;34770;49.272;11.070;2024-03-23T03:32:04;6.03;;;4.57;;
16029;SDS011;34770;49.272;11.070;2024-03-23T03:34:29;5.30;;;4.80;;
16029;SDS011;34770;49.272;11.070;2024-03-23T03:36:56;5.05;;;4.55;;
16029;SDS011;34770;49.272;11.070;2024-03-23T03:39:21;9.15;;;4.60;;
16029;SDS011;34770;49.272;11.070;2024-03-23T03:41:47;7.07;;;5.30;;
16029;SDS011;34770;49.272;11.070;2024-03-23T03:44:13;5.05;;;4.60;;
16029;SDS011;34770;49.272;11.070;2024-03-23T03:46:39;5.85;;;5.32;;
16029;SDS011;34770;49.272;11.070;2024-03-23T03:49:04;8.05;;;5.35;;
16029;SDS011;34770;49.272;11.070;2024-03-23T03:51:30;5.32;;;4.82;;
16029;SDS011;34770;49.272;11.070;2024-03-23T03:53:56;5.70;;;4.80;;
16029;SDS011;34770;49.272;11.070;2024-03-23T03:56:21;5.18;;;4.70;;
16029;SDS011;34770;49.272;11.070;2024-03-23T03:58:47;6.30;;;5.53;;
16029;SDS011;34770;49.272;11.070;2024-03-23T04:01:13;6.88;;;5.22;;
16029;SDS011;34770;49.272;11.070;2024-03-23T04:03:38;5.65;;;5.10;;
16029;SDS011;34770;49.272;11.070;2024-03-23T04:06:08;5.50;;;5.00;;
16029;SDS011;34770;49.272;11.070;2024-03-23T04:08:34;5.60;;;5.10;;
16029;SDS011;34770;49.272;11.070;2024-03-23T04:11:00;5.32;;;4.82;;
16029;SDS011;34770;49.272;11.070;2024-03-23T04:13:25;4.78;;;4.22;;
16029;SDS011;34770;49.272;11.070;2024-03-23T04:15:54;5.70;;;5.05;;
16029;SDS011;34770;49.272;11.070;2024-03-23T04:18:22;6.15;;;5.55;;
16029;SDS011;34770;49.272;11.070;2024-03-23T04:20:49;8.10;;;5.18;;
16029;SDS011;34770;49.272;11.070;2024-03-23T04:23:14;5.88;;;5.32;;
16029;SDS011;34770;49.272;11.070;2024-03-23T04:25:40;7.35;;;5.80;;
16029;SDS011;34770;49.272;11.070;2024-03-23T04:28:05;6.32;;;5.47;;
16029;SDS011;34770;49.272;11.070;2024-03-23T04:30:31;6.13;;;5.53;;
16029;SDS011;34770;49.272;11.070;2024-03-23T04:32:57;6.00;;;5.40;;
16029;SDS011;34770;49.272;11.070;2024-03-23T04:35:23;6.32;;;5.72;;
16029;SDS011;34770;49.272;11.070;2024-03-23T04:37:50;6.90;;;4.88;;
16029;SDS011;34770;49.272;11.070;2024-03-23T04:40:20;6.05;;;5.18;;
16029;SDS011;34770;49.272;11.070;2024-03-23T04:42:46;5.40;;;4.90;;
16029;SDS011;34770;49.272;11.070;2024-03-23T04:45:11;5.93;;;5.43;;
16029;SDS011;34770;49.272;11.070;2024-03-23T04:47:40;6.82;;;5.18;;
16029;SDS011;34770;49.272;11.070;2024-03-23T04:50:05;6.28;;;5.65;;
16029;SDS011;34770;49.272;11.070;2024-03-23T04:52:31;6.00;;;5.40;;
16029;SDS011;34770;49.272;11.070;2024-03-23T04:54:56;5.90;;;5.28;;
16029;SDS011;34770;49.272;11.070;2024-03-23T04:57:22;5.90;;;5.30;;
16029;SDS011;34770;49.272;11.070;2024-03-23T04:59:48;5.95;;;5.13;;
16029;SDS011;34770;49.272;11.070;2024-03-23T05:02:13;6.63;;;5.15;;
16029;SDS011;34770;49.272;11.070;2024-03-23T05:04:40;6.43;;;5.70;;
16029;SDS011;34770;49.272;11.070;2024-03-23T05:07:08;5.53;;;5.03;;
16029;SDS011;34770;49.272;11.070;2024-03-23T05:09:33;7.18;;;5.40;;
16029;SDS011;34770;49.272;11.070;2024-03-23T05:12:02;6.90;;;4.97;;
16029;SDS011;34770;49.272;11.070;2024-03-23T05:14:28;5.75;;;5.22;;
16029;SDS011;34770;49.272;11.070;2024-03-23T05:16:54;5.25;;;4.75;;
16029;SDS011;34770;49.272;11.070;2024-03-23T05:19:20;5.28;;;4.80;;
16029;SDS011;34770;49.272;11.070;2024-03-23T05:21:46;5.32;;;4.45;;
16029;SDS011;34770;49.272;11.070;2024-03-23T05:24:12;5.97;;;5.00;;
16029;SDS011;34770;49.272;11.070;2024-03-23T05:26:37;5.05;;;4.57;;
16029;SDS011;34770;49.272;11.070;2024-03-23T05:29:03;5.38;;;4.88;;
16029;SDS011;34770;49.272;11.070;2024-03-23T05:31:30;6.13;;;5.50;;
16029;SDS011;34770;49.272;11.070;2024-03-23T05:33:56;5.93;;;5.00;;
16029;SDS011;34770;49.272;11.070;2024-03-23T05:36:22;6.03;;;4.70;;
16029;SDS011;34770;49.272;11.070;2024-03-23T05:38:49;4.93;;;4.53;;
16029;SDS011;34770;49.272;11.070;2024-03-23T05:41:15;4.90;;;4.28;;
16029;SDS011;34770;49.272;11.070;2024-03-23T05:43:40;5.20;;;4.70;;
16029;SDS011;34770;49.272;11.070;2024-03-23T05:46:05;4.43;;;4.03;;
16029;SDS011;34770;49.272;11.070;2024-03-23T05:48:32;5.05;;;4.57;;
16029;SDS011;34770;49.272;11.070;2024-03-23T05:50:58;4.80;;;4.40;;
16029;SDS011;34770;49.272;11.070;2024-03-23T05:53:23;4.70;;;4.30;;
16029;SDS011;34770;49.272;11.070;2024-03-23T05:55:49;5.43;;;4.78;;
16029;SDS011;34770;49.272;11.070;2024-03-23T05:58:25;6.85;;;4.43;;
16029;SDS011;34770;49.272;11.070;2024-03-23T06:00:56;5.57;;;4.82;;
16029;SDS011;34770;49.272;11.070;2024-03-23T06:03:23;5.05;;;4.60;;
16029;SDS011;34770;49.272;11.070;2024-03-23T06:05:48;6.03;;;5.18;;
16029;SDS011;34770;49.272;11.070;2024-03-23T06:08:14;5.97;;;5.22;;
16029;SDS011;34770;49.272;11.070;2024-03-23T06:10:40;6.10;;;5.10;;
16029;SDS011;34770;49.272;11.070;2024-03-23T06:13:05;5.72;;;5.22;;
16029;SDS011;34770;49.272;11.070;2024-03-23T06:15:31;5.63;;;5.05;;
16029;SDS011;34770;49.272;11.070;2024-03-23T06:17:56;5.72;;;4.93;;
16029;SDS011;34770;49.272;11.070;2024-03-23T06:20:22;5.90;;;5.30;;
16029;SDS011;34770;49.272;11.070;2024-03-23T06:22:47;4.97;;;4.45;;
16029;SDS011;34770;49.272;11.070;2024-03-23T06:25:13;5.93;;;4.65;;
16029;SDS011;34770;49.272;11.070;2024-03-23T06:27:38;4.63;;;4.18;;
16029;SDS011;34770;49.272;11.070;2024-03-23T06:30:04;4.90;;;4.50;;
16029;SDS011;34770;49.272;11.070;2024-03-23T06:32:31;6.70;;;5.20;;
16029;SDS011;34770;49.272;11.070;2024-03-23T06:34:57;4.88;;;4.25;;
16029;SDS011;34770;49.272;11.070;2024-03-23T06:37:23;5.25;;;4.22;;
16029;SDS011;34770;49.272;11.070;2024-03-23T06:39:48;4.18;;;3.65;;
16029;SDS011;34770;49.272;11.070;2024-03-23T06:42:13;7.00;;;4.63;;
16029;SDS011;34770;49.272;11.070;2024-03-23T06:44:39;4.93;;;4.43;;
16029;SDS011;34770;49.272;11.070;2024-03-23T06:47:05;5.63;;;5.10;;
16029;SDS011;34770;49.272;11.070;2024-03-23T06:49:30;5.25;;;4.25;;
16029;SDS011;34770;49.272;11.070;2024-03-23T06:51:56;4.88;;;4.25;;
16029;SDS011;34770;49.272;11.070;2024-03-23T06:54:21;5.60;;;4.90;;
16029;SDS011;34770;49.272;11.070;2024-03-23T06:56:47;5.65;;;4.88;;
16029;SDS011;34770;49.272;11.070;2024-03-23T06:59:12;6.95;;;6.28;;
16029;SDS011;34770;49.272;11.070;2024-03-23T07:01:38;6.60;;;5.90;;
16029;SDS011;34770;49.272;11.070;2024-03-23T07:04:04;6.90;;;6.20;;
16029;SDS011;34770;49.272;11.070;2024-03-23T07:06:30;6.07;;;5.45;;
16029;SDS011;34770;49.272;11.070;2024-03-23T07:08:55;5.93;;;5.30;;
16029;SDS011;34770;49.272;11.070;2024-03-23T07:11:21;6.30;;;5.70;;
16029;SDS011;34770;49.272;11.070;2024-03-23T07:13:52;7.32;;;6.63;;
16029;SDS011;34770;49.272;11.070;2024-03-23T07:16:21;6.63;;;5.72;;
16029;SDS011;34770;49.272;11.070;2024-03-23T07:18:47;6.53;;;5.93;;
16029;SDS011;34770;49.272;11.070;2024-03-23T07:21:12;9.23;;;7.00;;
16029;SDS011;34770;49.272;11.070;2024-03-23T07:23:38;9.95;;;6.90;;
16029;SDS011;34770;49.272;11.070;2024-03-23T07:26:09;6.15;;;5.50;;
16029;SDS011;34770;49.272;11.070;2024-03-23T07:28:35;7.45;;;6.68;;
16029;SDS011;34770;49.272;11.070;2024-03-23T07:33:30;10.15;;;6.25;;
16029;SDS011;34770;49.272;11.070;2024-03-23T07:35:57;6.20;;;5.32;;
16029;SDS011;34770;49.272;11.070;2024-03-23T07:38:25;6.95;;;6.30;;
16029;SDS011;34770;49.272;11.070;2024-03-23T07:41:04;6.07;;;5.47;;
16029;SDS011;34770;49.272;11.070;2024-03-23T07:43:32;6.82;;;5.93;;
16029;SDS011;34770;49.272;11.070;2024-03-23T07:45:58;5.65;;;5.05;;
16029;SDS011;34770;49.272;11.070;2024-03-23T07:48:24;6.80;;;5.80;;
16029;SDS011;34770;49.272;11.070;2024-03-23T07:53:23;5.82;;;5.28;;
16029;SDS011;34770;49.272;11.070;2024-03-23T07:55:55;7.07;;;5.75;;
16029;SDS011;34770;49.272;11.070;2024-03-23T07:58:22;6.10;;;5.50;;
16029;SDS011;34770;49.272;11.070;2024-03-23T08:00:47;8.40;;;5.57;;
16029;SDS011;34770;49.272;11.070;2024-03-23T08:03:13;6.47;;;5.30;;
16029;SDS011;34770;49.272;11.070;2024-03-23T08:05:38;6.63;;;5.88;;
16029;SDS011;34770;49.272;11.070;2024-03-23T08:08:04;5.40;;;4.90;;
16029;SDS011;34770;49.272;11.070;2024-03-23T08:10:29;9.18;;;5.60;;
16029;SDS011;34770;49.272;11.070;2024-03-23T08:12:55;7.35;;;4.97;;
16029;SDS011;34770;49.272;11.070;2024-03-23T08:15:20;5.70;;;5.10;;
16029;SDS011;34770;49.272;11.070;2024-03-23T08:17:46;5.90;;;5.30;;
16029;SDS011;34770;49.272;11.070;2024-03-23T08:20:11;8.20;;;5.85;;
16029;SDS011;34770;49.272;11.070;2024-03-23T08:22:37;5.53;;;4.97;;
16029;SDS011;34770;49.272;11.070;2024-03-23T08:25:02;6.30;;;5.60;;
16029;SDS011;34770;49.272;11.070;2024-03-23T08:27:28;4.85;;;4.40;;
16029;SDS011;34770;49.272;11.070;2024-03-23T08:29:53;5.43;;;4.68;;
16029;SDS011;34770;49.272;11.070;2024-03-23T08:32:23;5.72;;;4.75;;
16029;SDS011;34770;49.272;11.070;2024-03-23T08:34:49;4.85;;;4.40;;
16029;SDS011;34770;49.272;11.070;2024-03-23T08:37:14;5.05;;;4.50;;
16029;SDS011;34770;49.272;11.070;2024-03-23T08:39:40;4.63;;;4.15;;
16029;SDS011;34770;49.272;11.070;2024-03-23T08:42:08;5.40;;;4.45;;
16029;SDS011;34770;49.272;11.070;2024-03-23T08:44:33;5.05;;;4.45;;
16029;SDS011;34770;49.272;11.070;2024-03-23T08:46:59;4.95;;;4.35;;
16029;SDS011;34770;49.272;11.070;2024-03-23T08:49:24;4.63;;;4.22;;
16029;SDS011;34770;49.272;11.070;2024-03-23T08:51:50;4.20;;;3.80;;
16029;SDS011;34770;49.272;11.070;2024-03-23T08:54:15;3.50;;;3.20;;
16029;SDS011;34770;49.272;11.070;2024-03-23T08:56:41;3.88;;;3.50;;
16029;SDS011;34770;49.272;11.070;2024-03-23T08:59:06;4.45;;;3.35;;
16029;SDS011;34770;49.272;11.070;2024-03-23T09:01:31;6.13;;;3.22;;
16029;SDS011;34770;49.272;11.070;2024-03-23T09:03:57;3.00;;;2.80;;
16029;SDS011;34770;49.272;11.070;2024-03-23T09:06:22;3.80;;;2.92;;
16029;SDS011;34770;49.272;11.070;2024-03-23T09:08:48;2.72;;;2.53;;
16029;SDS011;34770;49.272;11.070;2024-03-23T09:11:13;2.92;;;2.63;;
16029;SDS011;34770;49.272;11.070;2024-03-23T09:13:39;2.63;;;2.42;;
16029;SDS011;34770;49.272;11.070;2024-03-23T09:16:06;2.90;;;2.70;;
16029;SDS011;34770;49.272;11.070;2024-03-23T09:18:33;2.30;;;2.20;;
16029;SDS011;34770;49.272;11.070;2024-03-23T09:21:00;2.70;;;2.50;;
16029;SDS011;34770;49.272;11.070;2024-03-23T09:23:26;2.15;;;2.05;;
16029;SDS011;34770;49.272;11.070;2024-03-23T09:25:51;2.60;;;2.40;;
16029;SDS011;34770;49.272;11.070;2024-03-23T09:28:17;2.10;;;2.00;;
16029;SDS011;34770;49.272;11.070;2024-03-23T09:30:42;2.60;;;2.40;;
16029;SDS011;34770;49.272;11.070;2024-03-23T09:33:11;1.90;;;1.80;;
16029;SDS011;34770;49.272;11.070;2024-03-23T09:35:40;2.38;;;2.17;;
16029;SDS011;34770;49.272;11.070;2024-03-23T09:38:08;2.42;;;2.22;;
16029;SDS011;34770;49.272;11.070;2024-03-23T09:40:34;3.55;;;2.40;;
16029;SDS011;34770;49.272;11.070;2024-03-23T09:43:00;2.20;;;2.00;;
16029;SDS011;34770;49.272;11.070;2024-03-23T09:45:29;2.17;;;2.03;;
16029;SDS011;34770;49.272;11.070;2024-03-23T09:47:55;2.25;;;2.05;;
16029;SDS011;34770;49.272;11.070;2024-03-23T09:50:21;2.03;;;1.92;;
16029;SDS011;34770;49.272;11.070;2024-03-23T09:52:46;2.05;;;1.95;;
16029;SDS011;34770;49.272;11.070;2024-03-23T09:55:12;1.90;;;1.80;;
16029;SDS011;34770;49.272;11.070;2024-03-23T09:57:39;1.60;;;1.50;;
16029;SDS011;34770;49.272;11.070;2024-03-23T10:00:04;1.80;;;1.70;;
16029;SDS011;34770;49.272;11.070;2024-03-23T10:02:31;1.80;;;1.70;;
16029;SDS011;34770;49.272;11.070;2024-03-23T10:04:57;1.40;;;1.40;;
16029;SDS011;34770;49.272;11.070;2024-03-23T10:07:23;1.73;;;1.63;;
16029;SDS011;34770;49.272;11.070;2024-03-23T10:09:48;1.65;;;1.55;;
16029;SDS011;34770;49.272;11.070;2024-03-23T10:12:16;1.52;;;1.42;;
16029;SDS011;34770;49.272;11.070;2024-03-23T10:14:43;1.38;;;1.38;;
16029;SDS011;34770;49.272;11.070;2024-03-23T10:17:18;1.20;;;1.20;;
16029;SDS011;34770;49.272;11.070;2024-03-23T10:19:49;1.65;;;1.55;;
16029;SDS011;34770;49.272;11.070;2024-03-23T10:22:20;1.40;;;1.40;;
16029;SDS011;34770;49.272;11.070;2024-03-23T10:24:47;1.17;;;1.17;;
16029;SDS011;34770;49.272;11.070;2024-03-23T10:27:17;1.00;;;1.00;;
16029;SDS011;34770;49.272;11.070;2024-03-23T10:29:44;1.40;;;1.30;;
16029;SDS011;34770;49.272;11.070;2024-03-23T10:32:10;0.98;;;0.98;;
16029;SDS011;34770;49.272;11.070;2024-03-23T10:34:37;1.10;;;1.10;;
16029;SDS011;34770;49.272;11.070;2024-03-23T10:37:03;1.23;;;1.17;;
16029;SDS011;34770;49.272;11.070;2024-03-23T10:39:30;1.33;;;1.33;;
16029;SDS011;34770;49.272;11.070;2024-03-23T10:42:04;1.02;;;1.02;;
16029;SDS011;34770;49.272;11.070;2024-03-23T10:44:33;1.02;;;1.02;;
16029;SDS011;34770;49.272;11.070;2024-03-23T10:46:59;1.38;;;1.30;;
16029;SDS011;34770;49.272;11.070;2024-03-23T10:49:32;1.42;;;1.33;;
16029;SDS011;34770;49.272;11.070;2024-03-23T10:51:58;1.50;;;1.40;;
16029;SDS011;34770;49.272;11.070;2024-03-23T10:54:27;1.38;;;1.27;;
16029;SDS011;34770;49.272;11.070;2024-03-23T10:57:12;1.60;;;1.50;;
16029;SDS011;34770;49.272;11.070;2024-03-23T10:59:42;1.48;;;1.38;;
16029;SDS011;34770;49.272;11.070;2024-03-23T11:02:18;1.25;;;1.25;;
16029;SDS011;34770;49.272;11.070;2024-03-23T11:04:44;1.98;;;1.88;;
16029;SDS011;34770;49.272;11.070;2024-03-23T11:07:31;1.85;;;1.35;;
16029;SDS011;34770;49.272;11.070;2024-03-23T11:09:59;1.83;;;1.60;;
16029;SDS011;34770;49.272;11.070;2024-03-23T11:12:26;1.92;;;1.42;;
16029;SDS011;34770;49.272;11.070;2024-03-23T11:17:22;2.13;;;1.90;;
16029;SDS011;34770;49.272;11.070;2024-03-23T11:20:04;2.63;;;2.00;;
16029;SDS011;34770;49.272;11.070;2024-03-23T11:22:46;1.95;;;1.83;;
16029;SDS011;34770;49.272;11.070;2024-03-23T11:25:16;2.10;;;1.95;;
16029;SDS011;34770;49.272;11.070;2024-03-23T11:27:45;4.28;;;2.53;;
16029;SDS011;34770;49.272;11.070;2024-03-23T11:30:15;5.95;;;2.08;;
16029;SDS011;34770;49.272;11.070;2024-03-23T11:32:43;4.20;;;2.10;;
16029;SDS011;34770;49.272;11.070;2024-03-23T11:35:09;2.95;;;2.20;;
16029;SDS011;34770;49.272;11.070;2024-03-23T11:37:38;3.17;;;1.98;;
16029;SDS011;34770;49.272;11.070;2024-03-23T11:40:16;4.85;;;1.98;;
16029;SDS011;34770;49.272;11.070;2024-03-23T11:42:43;3.13;;;1.80;;
16029;SDS011;34770;49.272;11.070;2024-03-23T11:45:09;3.55;;;2.20;;
16029;SDS011;34770;49.272;11.070;2024-03-23T11:47:34;4.75;;;1.85;;
16029;SDS011;34770;49.272;11.070;2024-03-23T11:50:00;2.28;;;2.08;;
16029;SDS011;34770;49.272;11.070;2024-03-23T11:52:25;2.78;;;2.00;;
16029;SDS011;34770;49.272;11.070;2024-03-23T11:54:51;3.38;;;2.10;;
16029;SDS011;34770;49.272;11.070;2024-03-23T11:57:16;3.08;;;1.80;;
16029;SDS011;34770;49.272;11.070;2024-03-23T11:59:42;2.08;;;1.90;;
16029;SDS011;34770;49.272;11.070;2024-03-23T12:02:12;2.60;;;2.30;;
16029;SDS011;34770;49.272;11.070;2024-03-23T12:04:41;5.95;;;2.20;;
16029;SDS011;34770;49.272;11.070;2024-03-23T12:07:11;2.20;;;2.00;;
16029;SDS011;34770;49.272;11.070;2024-03-23T12:09:37;2.58;;;1.88;;
16029;SDS011;34770;49.272;11.070;2024-03-23T12:12:10;3.03;;;1.98;;
16029;SDS011;34770;49.272;11.070;2024-03-23T12:14:39;3.97;;;1.70;;
16029;SDS011;34770;49.272;11.070;2024-03-23T12:17:12;3.35;;;2.05;;
16029;SDS011;34770;49.272;11.070;2024-03-23T12:19:38;3.38;;;2.08;;
16029;SDS011;34770;49.272;11.070;2024-03-23T12:22:05;3.10;;;1.92;;
16029;SDS011;34770;49.272;11.070;2024-03-23T12:24:32;4.15;;;1.52;;
16029;SDS011;34770;49.272;11.070;2024-03-23T12:27:02;5.18;;;2.17;;
16029;SDS011;34770;49.272;11.070;2024-03-23T12:29:30;1.70;;;1.60;;
16029;SDS011;34770;49.272;11.070;2024-03-23T12:31:58;2.85;;;1.75;;
16029;SDS011;34770;49.272;11.070;2024-03-23T12:34:25;3.58;;;2.05;;
16029;SDS011;34770;49.272;11.070;2024-03-23T12:36:50;2.08;;;1.83;;
16029;SDS011;34770;49.272;11.070;2024-03-23T12:39:16;1.95;;;1.45;;
16029;SDS011;34770;49.272;11.070;2024-03-23T12:41:41;2.97;;;1.75;;
16029;SDS011;34770;49.272;11.070;2024-03-23T12:44:06;3.28;;;2.00;;
16029;SDS011;34770;49.272;11.070;2024-03-23T12:46:34;3.47;;;2.50;;
16029;SDS011;34770;49.272;11.070;2024-03-23T12:48:59;3.70;;;1.98;;
16029;SDS011;34770;49.272;11.070;2024-03-23T12:51:25;3.70;;;2.22;;
16029;SDS011;34770;49.272;11.070;2024-03-23T12:53:50;3.90;;;1.88;;
16029;SDS011;34770;49.272;11.070;2024-03-23T12:56:16;3.65;;;2.08;;
16029;SDS011;34770;49.272;11.070;2024-03-23T12:58:42;4.95;;;2.22;;
16029;SDS011;34770;49.272;11.070;2024-03-23T13:01:07;3.40;;;1.98;;
16029;SDS011;34770;49.272;11.070;2024-03-23T13:03:33;4.95;;;2.25;;
16029;SDS011;34770;49.272;11.070;2024-03-23T13:05:58;4.07;;;1.92;;
16029;SDS011;34770;49.272;11.070;2024-03-23T13:08:23;2.60;;;2.10;;
16029;SDS011;34770;49.272;11.070;2024-03-23T13:10:52;3.80;;;2.00;;
16029;SDS011;34770;49.272;11.070;2024-03-23T13:13:18;2.72;;;2.35;;
16029;SDS011;34770;49.272;11.070;2024-03-23T13:15:49;3.75;;;2.30;;
16029;SDS011;34770;49.272;11.070;2024-03-23T13:18:15;2.72;;;1.80;;
16029;SDS011;34770;49.272;11.070;2024-03-23T13:20:40;3.75;;;2.03;;
16029;SDS011;34770;49.272;11.070;2024-03-23T13:23:06;2.58;;;2.10;;
16029;SDS011;34770;49.272;11.070;2024-03-23T13:25:31;3.55;;;2.35;;
16029;SDS011;34770;49.272;11.070;2024-03-23T13:27:58;5.53;;;2.22;;
16029;SDS011;34770;49.272;11.070;2024-03-23T13:30:23;3.55;;;2.05;;
16029;SDS011;34770;49.272;11.070;2024-03-23T13:32:49;3.55;;;1.90;;
16029;SDS011;34770;49.272;11.070;2024-03-23T13:35:15;4.50;;;2.40;;
16029;SDS011;34770;49.272;11.070;2024-03-23T13:37:41;3.55;;;2.13;;
16029;SDS011;34770;49.272;11.070;2024-03-23T13:40:06;3.58;;;1.92;;
16029;SDS011;34770;49.272;11.070;2024-03-23T13:42:33;5.45;;;2.40;;
16029;SDS011;34770;49.272;11.070;2024-03-23T13:44:58;3.80;;;2.03;;
16029;SDS011;34770;49.272;11.070;2024-03-23T13:47:23;1.98;;;1.73;;
16029;SDS011;34770;49.272;11.070;2024-03-23T13:49:49;5.90;;;2.35;;
16029;SDS011;34770;49.272;11.070;2024-03-23T13:52:14;2.33;;;1.98;;
16029;SDS011;34770;49.272;11.070;2024-03-23T13:54:40;3.35;;;2.00;;
16029;SDS011;34770;49.272;11.070;2024-03-23T13:57:11;3.78;;;2.08;;
16029;SDS011;34770;49.272;11.070;2024-03-23T13:59:36;2.78;;;2.03;;
16029;SDS011;34770;49.272;11.070;2024-03-23T14:02:02;3.47;;;2.10;;
16029;SDS011;34770;49.272;11.070;2024-03-23T14:04:28;3.25;;;2.03;;
16029;SDS011;34770;49.272;11.070;2024-03-23T14:06:53;4.57;;;2.03;;
16029;SDS011;34770;49.272;11.070;2024-03-23T14:09:19;5.13;;;2.30;;
16029;SDS011;34770;49.272;11.070;2024-03-23T14:11:47;4.22;;;1.83;;
16029;SDS011;34770;49.272;11.070;2024-03-23T14:14:14;3.60;;;2.15;;
16029;SDS011;34770;49.272;11.070;2024-03-23T14:16:43;3.78;;;1.98;;
16029;SDS011;34770;49.272;11.070;2024-03-23T14:19:09;6.07;;;1.83;;
16029;SDS011;34770;49.272;11.070;2024-03-23T14:21:34;3.42;;;1.80;;
16029;SDS011;34770;49.272;11.070;2024-03-23T14:24:00;3.75;;;2.17;;
16029;SDS011;34770;49.272;11.070;2024-03-23T14:26:26;3.58;;;2.10;;
16029;SDS011;34770;49.272;11.070;2024-03-23T14:28:52;5.90;;;2.17;;
16029;SDS011;34770;49.272;11.070;2024-03-23T14:31:17;4.88;;;2.10;;
16029;SDS011;34770;49.272;11.070;2024-03-23T14:33:43;4.45;;;2.30;;
16029;SDS011;34770;49.272;11.070;2024-03-23T14:36:12;4.80;;;2.13;;
16029;SDS011;34770;49.272;11.070;2024-03-23T14:38:38;3.40;;;1.83;;
16029;SDS011;34770;49.272;11.070;2024-03-23T14:41:04;4.38;;;2.33;;
16029;SDS011;34770;49.272;11.070;2024-03-23T14:43:29;4.90;;;2.40;;
16029;SDS011;34770;49.272;11.070;2024-03-23T14:46:08;3.38;;;1.90;;
16029;SDS011;34770;49.272;11.070;2024-03-23T14:48:41;4.63;;;2.53;;
16029;SDS011;34770;49.272;11.070;2024-03-23T14:51:08;4.35;;;2.17;;
16029;SDS011;34770;49.272;11.070;2024-03-23T14:53:34;5.10;;;2.40;;
16029;SDS011;34770;49.272;11.070;2024-03-23T14:56:01;3.05;;;2.10;;
16029;SDS011;34770;49.272;11.070;2024-03-23T14:58:28;3.83;;;2.13;;
16029;SDS011;34770;49.272;11.070;2024-03-23T15:01:04;4.22;;;2.28;;
16029;SDS011;34770;49.272;11.070;2024-03-23T15:03:34;4.93;;;2.40;;
16029;SDS011;34770;49.272;11.070;2024-03-23T15:05:59;4.93;;;2.42;;
16029;SDS011;34770;49.272;11.070;2024-03-23T15:08:26;3.95;;;2.40;;
16029;SDS011;34770;49.272;11.070;2024-03-23T15:10:53;3.10;;;2.28;;
16029;SDS011;34770;49.272;11.070;2024-03-23T15:13:19;2.33;;;1.73;;
16029;SDS011;34770;49.272;11.070;2024-03-23T15:15:47;4.00;;;2.33;;
16029;SDS011;34770;49.272;11.070;2024-03-23T15:18:16;3.25;;;1.98;;
16029;SDS011;34770;49.272;11.070;2024-03-23T15:20:56;1.90;;;1.70;;
16029;SDS011;34770;49.272;11.070;2024-03-23T15:23:23;3.05;;;2.08;;
16029;SDS011;34770;49.272;11.070;2024-03-23T15:25:58;2.13;;;1.90;;
16029;SDS011;34770;49.272;11.070;2024-03-23T15:28:25;3.20;;;2.00;;
16029;SDS011;34770;49.272;11.070;2024-03-23T15:31:05;3.28;;;2.15;;